createdAt,value
2023-02-15T00:00:16.021Z,5.85
2023-02-15T00:02:43.902Z,6.10
2023-02-15T00:05:14.333Z,3.53
2023-02-15T00:07:42.146Z,5.43
2023-02-15T00:10:10.342Z,6.10
2023-02-15T00:12:38.127Z,7.40
2023-02-15T00:15:06.143Z,9.48
2023-02-15T00:17:34.082Z,7.47
2023-02-15T00:20:02.008Z,5.18
2023-02-15T00:22:32.697Z,4.25
2023-02-15T00:25:00.838Z,5.72
2023-02-15T00:27:28.589Z,3.65
2023-02-15T00:29:56.383Z,4.55
2023-02-15T00:32:24.728Z,5.38
2023-02-15T00:34:52.633Z,3.72
2023-02-15T00:37:20.627Z,5.63
2023-02-15T00:39:51.107Z,2.63
2023-02-15T00:42:22.044Z,2.80
2023-02-15T00:44:49.762Z,2.67
2023-02-15T00:47:17.766Z,3.85
2023-02-15T00:49:45.586Z,4.80
2023-02-15T00:52:13.593Z,9.20
2023-02-15T00:54:41.382Z,6.07
2023-02-15T00:57:09.052Z,4.40
2023-02-15T00:59:36.733Z,3.97
2023-02-15T01:02:04.616Z,5.72
2023-02-15T01:04:38.329Z,3.28
2023-02-15T01:07:09.214Z,5.65
2023-02-15T01:09:37.148Z,4.90
2023-02-15T01:12:04.946Z,2.88
2023-02-15T01:14:33.094Z,4.15
2023-02-15T01:17:00.805Z,2.33
2023-02-15T01:19:33.151Z,4.50
2023-02-15T01:22:00.885Z,2.70
2023-02-15T01:24:28.837Z,3.40
2023-02-15T01:26:56.768Z,4.30
2023-02-15T01:29:24.449Z,3.60
2023-02-15T01:31:52.627Z,3.60
2023-02-15T01:34:20.443Z,2.35
2023-02-15T01:36:49.489Z,3.92
2023-02-15T01:39:17.182Z,2.28
2023-02-15T01:41:45.036Z,3.22
2023-02-15T01:44:46.859Z,2.20
2023-02-15T01:47:17.601Z,2.83
2023-02-15T01:49:45.612Z,2.00
2023-02-15T01:52:14.772Z,5.18
2023-02-15T01:54:43.294Z,3.53
2023-02-15T01:57:14.000Z,4.50
2023-02-15T01:59:42.116Z,1.67
2023-02-15T02:02:10.715Z,5.53
2023-02-15T02:04:45.106Z,4.22
2023-02-15T02:07:14.108Z,3.05
2023-02-15T02:09:41.838Z,3.72
2023-02-15T02:12:09.559Z,3.03
2023-02-15T02:14:37.812Z,2.17
2023-02-15T02:17:32.789Z,4.32
2023-02-15T02:20:21.810Z,1.25
2023-02-15T02:23:12.279Z,2.88
2023-02-15T02:26:18.428Z,2.38
2023-02-15T02:28:55.257Z,4.15
2023-02-15T02:31:45.674Z,4.68
2023-02-15T02:34:21.114Z,2.55
2023-02-15T02:36:53.869Z,5.55
2023-02-15T02:39:42.059Z,6.60
2023-02-15T02:42:18.372Z,2.78
2023-02-15T02:44:52.975Z,4.03
2023-02-15T02:47:25.445Z,2.80
2023-02-15T02:49:53.921Z,3.25
2023-02-15T02:52:42.154Z,2.55
2023-02-15T02:55:22.490Z,4.53
2023-02-15T02:58:04.929Z,2.40
2023-02-15T03:00:37.926Z,4.93
2023-02-15T03:03:09.017Z,2.67
2023-02-15T03:05:40.764Z,2.80
2023-02-15T03:08:11.089Z,2.97
2023-02-15T03:10:40.829Z,5.90
2023-02-15T03:13:08.997Z,2.70
2023-02-15T03:15:59.634Z,4.03
2023-02-15T03:18:33.135Z,1.75
2023-02-15T03:21:01.585Z,2.80
2023-02-15T03:23:30.334Z,2.22
2023-02-15T03:26:02.237Z,3.25
2023-02-15T03:28:43.972Z,2.50
2023-02-15T03:31:12.449Z,3.38
2023-02-15T03:33:45.513Z,3.67
2023-02-15T03:36:24.091Z,4.40
2023-02-15T03:39:06.456Z,3.75
2023-02-15T03:41:38.398Z,3.45
2023-02-15T03:44:20.160Z,5.10
2023-02-15T03:46:56.017Z,6.38
2023-02-15T03:49:30.245Z,2.88
2023-02-15T03:51:58.887Z,3.15
2023-02-15T03:54:43.899Z,3.70
2023-02-15T03:57:41.001Z,4.43
2023-02-15T04:00:43.650Z,5.80
2023-02-15T04:03:17.284Z,5.47
2023-02-15T04:05:45.750Z,5.43
2023-02-15T04:08:13.790Z,5.40
2023-02-15T04:10:59.225Z,4.50
2023-02-15T04:13:40.089Z,5.45
2023-02-15T04:16:08.670Z,2.47
2023-02-15T04:19:02.325Z,3.28
2023-02-15T04:21:50.021Z,2.15
2023-02-15T04:24:36.870Z,4.03
2023-02-15T04:27:05.507Z,4.43
2023-02-15T04:29:33.636Z,2.33
2023-02-15T04:32:01.922Z,2.75
2023-02-15T04:34:29.784Z,3.90
2023-02-15T04:36:57.756Z,4.70
2023-02-15T04:39:25.432Z,4.32
2023-02-15T04:41:53.252Z,3.92
2023-02-15T04:44:20.977Z,6.28
2023-02-15T04:46:48.697Z,2.55
2023-02-15T04:49:16.354Z,3.83
2023-02-15T04:51:44.395Z,5.18
2023-02-15T04:54:12.194Z,4.05
2023-02-15T04:56:40.509Z,4.95
2023-02-15T04:59:13.409Z,3.33
2023-02-15T05:01:42.763Z,5.45
2023-02-15T05:04:10.698Z,6.97
2023-02-15T05:06:39.108Z,5.25
2023-02-15T05:09:06.827Z,2.42
2023-02-15T05:11:34.710Z,3.53
2023-02-15T05:14:02.686Z,6.15
2023-02-15T05:16:30.541Z,2.08
2023-02-15T05:18:59.067Z,5.43
2023-02-15T05:21:31.539Z,4.90
2023-02-15T05:23:59.489Z,3.45
2023-02-15T05:26:45.663Z,2.25
2023-02-15T05:29:13.380Z,3.80
2023-02-15T05:31:41.304Z,3.05
2023-02-15T05:34:09.456Z,2.88
2023-02-15T05:36:37.224Z,5.03
2023-02-15T05:39:07.058Z,2.25
2023-02-15T05:41:34.854Z,3.13
2023-02-15T05:44:02.718Z,3.90
2023-02-15T05:46:30.642Z,3.88
2023-02-15T05:48:58.708Z,3.25
2023-02-15T05:51:26.457Z,3.88
2023-02-15T05:53:54.174Z,4.07
2023-02-15T05:56:22.524Z,4.15
2023-02-15T05:58:50.949Z,3.38
2023-02-15T06:01:19.414Z,3.08
2023-02-15T06:03:47.457Z,3.75
2023-02-15T06:06:16.040Z,3.05
2023-02-15T06:08:43.977Z,4.63
2023-02-15T06:11:12.067Z,2.53
2023-02-15T06:13:40.199Z,3.90
2023-02-15T06:16:08.142Z,2.97
2023-02-15T06:18:35.957Z,5.95
2023-02-15T06:21:03.805Z,4.38
2023-02-15T06:23:31.857Z,4.68
2023-02-15T06:25:59.864Z,12.60
2023-02-15T06:28:27.677Z,10.95
2023-02-15T06:30:55.417Z,12.52
2023-02-15T06:33:24.175Z,5.82
2023-02-15T06:35:52.000Z,7.55
2023-02-15T06:38:19.761Z,3.17
2023-02-15T06:40:47.764Z,6.45
2023-02-15T06:43:15.413Z,4.15
2023-02-15T06:45:43.446Z,5.38
2023-02-15T06:48:12.388Z,6.80
2023-02-15T06:50:40.084Z,4.35
2023-02-15T06:53:12.076Z,3.25
2023-02-15T06:55:39.954Z,3.03
2023-02-15T06:58:07.786Z,6.57
2023-02-15T07:00:35.629Z,4.50
2023-02-15T07:03:04.039Z,4.15
2023-02-15T07:05:34.361Z,4.60
2023-02-15T07:08:02.303Z,7.20
2023-02-15T07:10:30.397Z,3.45
2023-02-15T07:12:58.106Z,4.43
2023-02-15T07:15:26.477Z,3.20
2023-02-15T07:17:54.948Z,5.20
2023-02-15T07:20:23.577Z,3.10
2023-02-15T07:22:52.283Z,3.15
2023-02-15T07:25:20.222Z,5.88
2023-02-15T07:27:47.944Z,6.40
2023-02-15T07:30:17.208Z,8.00
2023-02-15T07:33:05.676Z,5.40
2023-02-15T07:35:36.114Z,4.85
2023-02-15T07:38:03.809Z,3.55
2023-02-15T07:40:31.732Z,4.45
2023-02-15T07:43:00.295Z,7.57
2023-02-15T07:45:28.279Z,6.95
2023-02-15T07:47:56.910Z,7.78
2023-02-15T07:50:24.678Z,3.92
2023-02-15T07:52:52.820Z,3.80
2023-02-15T07:55:20.731Z,3.47
2023-02-15T07:57:49.781Z,3.75
2023-02-15T08:00:18.828Z,3.33
2023-02-15T08:03:10.786Z,5.93
2023-02-15T08:05:38.867Z,4.65
2023-02-15T08:08:06.901Z,1.95
2023-02-15T08:10:53.796Z,5.97
2023-02-15T08:13:23.310Z,3.85
2023-02-15T08:15:56.227Z,3.85
2023-02-15T08:18:24.096Z,1.98
2023-02-15T08:20:52.268Z,5.38
2023-02-15T08:23:20.686Z,4.60
2023-02-15T08:25:48.441Z,6.00
2023-02-15T08:28:16.426Z,5.22
2023-02-15T08:30:44.454Z,5.70
2023-02-15T08:33:12.865Z,1.80
2023-02-15T08:35:40.946Z,5.32
2023-02-15T08:38:09.699Z,2.35
2023-02-15T08:40:39.243Z,3.58
2023-02-15T08:43:08.228Z,4.20
2023-02-15T08:45:37.079Z,4.03
2023-02-15T08:48:05.487Z,3.45
2023-02-15T08:50:35.071Z,4.63
2023-02-15T08:53:03.217Z,4.43
2023-02-15T08:55:31.037Z,5.13
2023-02-15T08:57:59.042Z,5.00
2023-02-15T09:00:27.127Z,2.97
2023-02-15T09:02:54.966Z,3.47
2023-02-15T09:05:23.049Z,5.13
2023-02-15T09:07:50.863Z,6.05
2023-02-15T09:10:18.988Z,5.00
2023-02-15T09:12:47.698Z,4.78
2023-02-15T09:15:19.831Z,3.92
2023-02-15T09:17:50.024Z,5.75
2023-02-15T09:20:17.981Z,3.15
2023-02-15T09:22:45.899Z,3.60
2023-02-15T09:25:14.789Z,6.82
2023-02-15T09:27:43.326Z,3.05
2023-02-15T09:30:12.402Z,3.03
2023-02-15T09:32:43.428Z,2.63
2023-02-15T09:35:13.361Z,2.38
2023-02-15T09:37:41.596Z,5.40
2023-02-15T09:40:09.665Z,4.43
2023-02-15T09:43:23.806Z,1.75
2023-02-15T09:46:13.787Z,5.45
2023-02-15T09:48:43.068Z,2.42
2023-02-15T09:51:18.104Z,2.78
2023-02-15T09:53:51.934Z,5.55
2023-02-15T09:56:39.970Z,5.68
2023-02-15T09:59:36.608Z,3.10
2023-02-15T10:02:07.322Z,2.97
2023-02-15T10:04:35.638Z,3.42
2023-02-15T10:07:28.249Z,3.40
2023-02-15T10:10:13.322Z,5.47
2023-02-15T10:13:14.942Z,4.15
2023-02-15T10:15:59.280Z,4.25
2023-02-15T10:18:49.978Z,5.93
2023-02-15T10:21:53.134Z,2.88
2023-02-15T10:24:42.633Z,4.32
2023-02-15T10:27:14.665Z,5.00
2023-02-15T10:30:08.710Z,3.60
2023-02-15T10:33:00.330Z,4.63
2023-02-15T10:35:39.364Z,3.05
2023-02-15T10:38:18.194Z,9.52
2023-02-15T10:41:08.211Z,4.63
2023-02-15T10:43:47.677Z,3.10
2023-02-15T10:46:41.461Z,4.82
2023-02-15T10:49:27.543Z,4.43
2023-02-15T10:52:04.129Z,5.35
2023-02-15T10:54:42.120Z,4.32
2023-02-15T10:57:19.693Z,5.85
2023-02-15T10:59:57.168Z,7.57
2023-02-15T11:02:47.933Z,6.72
2023-02-15T11:05:37.270Z,5.65
2023-02-15T11:08:06.413Z,3.25
2023-02-15T11:10:37.918Z,7.25
2023-02-15T11:13:18.230Z,6.22
2023-02-15T11:15:55.539Z,2.85
2023-02-15T11:18:25.930Z,5.93
2023-02-15T11:20:59.523Z,3.88
2023-02-15T11:23:27.455Z,4.88
2023-02-15T11:26:03.462Z,5.20
2023-02-15T11:28:48.142Z,4.97
2023-02-15T11:31:23.699Z,3.85
2023-02-15T11:33:58.478Z,3.72
2023-02-15T11:36:27.961Z,5.82
2023-02-15T11:38:59.571Z,3.85
2023-02-15T11:41:31.219Z,4.47
2023-02-15T11:46:37.985Z,5.00
2023-02-15T11:49:32.760Z,4.15
2023-02-15T11:52:08.530Z,11.52
2023-02-15T11:54:37.783Z,4.07
2023-02-15T11:57:42.023Z,7.60
2023-02-15T12:00:14.275Z,2.08
2023-02-15T12:02:46.532Z,6.35
2023-02-15T12:08:05.118Z,3.08
2023-02-15T12:10:39.532Z,4.07
2023-02-15T12:13:14.016Z,6.40
2023-02-15T12:15:47.693Z,3.20
2023-02-15T12:18:27.305Z,4.80
2023-02-15T12:20:55.301Z,4.72
2023-02-15T12:23:23.065Z,3.75
2023-02-15T12:25:55.606Z,4.18
2023-02-15T12:28:40.755Z,3.63
2023-02-15T12:31:24.537Z,2.58
2023-02-15T12:33:55.128Z,4.22
2023-02-15T12:36:29.145Z,3.50
2023-02-15T12:39:29.984Z,2.40
2023-02-15T12:42:05.144Z,3.42
2023-02-15T12:44:37.181Z,2.35
2023-02-15T12:50:04.754Z,2.28
2023-02-15T12:52:32.904Z,3.53
2023-02-15T12:55:21.103Z,3.50
2023-02-15T12:57:49.039Z,3.67
2023-02-15T13:00:19.447Z,4.10
2023-02-15T13:02:54.677Z,4.57
2023-02-15T13:05:44.156Z,3.00
2023-02-15T13:08:23.315Z,6.57
2023-02-15T13:11:00.587Z,4.88
2023-02-15T13:13:33.002Z,4.88
2023-02-15T13:16:06.709Z,3.58
2023-02-15T13:18:47.567Z,6.38
2023-02-15T13:21:17.892Z,7.60
2023-02-15T13:23:49.902Z,4.25
2023-02-15T13:26:20.177Z,4.78
2023-02-15T13:28:50.085Z,8.13
2023-02-15T13:31:22.160Z,5.95
2023-02-15T13:34:02.916Z,6.05
2023-02-15T13:36:40.723Z,8.33
2023-02-15T13:39:26.187Z,7.68
2023-02-15T13:42:03.345Z,7.85
2023-02-15T13:44:40.501Z,11.15
2023-02-15T13:47:21.234Z,10.25
2023-02-15T13:50:14.186Z,4.72
2023-02-15T13:52:55.738Z,5.88
2023-02-15T13:55:42.539Z,4.47
2023-02-15T13:58:28.331Z,3.30
2023-02-15T14:01:05.251Z,4.32
2023-02-15T14:04:10.176Z,8.13
2023-02-15T14:07:10.879Z,3.85
2023-02-15T14:09:48.732Z,4.07
2023-02-15T14:12:31.681Z,5.13
2023-02-15T14:15:08.927Z,7.57
2023-02-15T14:17:53.546Z,5.28
2023-02-15T14:20:38.734Z,4.15
2023-02-15T14:23:12.783Z,8.85
2023-02-15T14:25:45.965Z,5.43
2023-02-15T14:28:24.695Z,5.20
2023-02-15T14:30:53.903Z,7.60
2023-02-15T14:33:41.797Z,8.20
2023-02-15T14:36:12.603Z,7.20
2023-02-15T14:38:58.213Z,4.35
2023-02-15T14:41:45.168Z,6.40
2023-02-15T14:44:17.454Z,7.65
2023-02-15T14:46:59.967Z,7.60
2023-02-15T14:49:29.105Z,9.65
2023-02-15T14:52:01.359Z,8.88
2023-02-15T14:54:34.403Z,11.07
2023-02-15T14:57:02.086Z,7.78
2023-02-15T14:59:59.527Z,9.90
2023-02-15T15:02:51.671Z,6.57
2023-02-15T15:09:26.993Z,5.43
2023-02-15T15:12:26.921Z,11.45
2023-02-15T15:14:56.701Z,9.52
2023-02-15T15:17:39.199Z,11.05
2023-02-15T15:20:08.534Z,9.38
2023-02-15T15:22:36.554Z,8.35
2023-02-15T15:25:11.912Z,9.20
2023-02-15T15:27:55.241Z,17.60
2023-02-15T15:30:24.928Z,30.45
2023-02-15T15:32:56.193Z,24.02
2023-02-15T15:35:45.589Z,13.73
2023-02-15T15:38:28.397Z,9.60
2023-02-15T15:41:15.186Z,21.25
2023-02-15T15:44:12.552Z,20.45
2023-02-15T15:46:58.406Z,12.40
2023-02-15T15:49:28.413Z,11.13
2023-02-15T15:51:56.108Z,12.10
2023-02-15T15:54:25.311Z,12.40
2023-02-15T15:57:05.655Z,9.73
2023-02-15T15:59:35.141Z,8.50
2023-02-15T16:02:09.110Z,9.73
2023-02-15T16:04:37.183Z,15.57
2023-02-15T16:07:19.619Z,13.45
2023-02-15T16:09:58.684Z,10.07
2023-02-15T16:12:30.649Z,7.20
2023-02-15T16:15:14.544Z,11.35
2023-02-15T16:17:44.200Z,13.38
2023-02-15T16:20:19.775Z,29.67
2023-02-15T16:22:48.371Z,21.70
2023-02-15T16:25:28.384Z,23.00
2023-02-15T16:27:56.288Z,14.50
2023-02-15T16:30:31.310Z,13.90
2023-02-15T16:33:10.601Z,10.23
2023-02-15T16:35:58.496Z,6.32
2023-02-15T16:38:52.403Z,9.55
2023-02-15T16:41:28.369Z,7.65
2023-02-15T16:44:02.569Z,17.25
2023-02-15T16:46:34.383Z,14.90
2023-02-15T16:49:05.443Z,8.32
2023-02-15T16:51:34.322Z,15.80
2023-02-15T16:54:07.229Z,8.75
2023-02-15T16:56:35.163Z,16.23
2023-02-15T16:59:02.812Z,7.57
2023-02-15T17:01:33.560Z,14.15
2023-02-15T17:04:23.221Z,8.00
2023-02-15T17:07:04.511Z,10.02
2023-02-15T17:09:33.657Z,6.20
2023-02-15T17:12:03.449Z,10.13
2023-02-15T17:14:32.332Z,13.70
2023-02-15T17:17:01.318Z,9.93
2023-02-15T17:19:34.983Z,20.23
2023-02-15T17:22:28.144Z,8.35
2023-02-15T17:25:00.450Z,10.93
2023-02-15T17:27:29.695Z,12.55
2023-02-15T17:30:05.651Z,11.85
2023-02-15T17:32:37.532Z,10.65
2023-02-15T17:37:49.990Z,10.45
2023-02-15T17:40:20.007Z,9.35
2023-02-15T17:42:47.793Z,4.50
2023-02-15T17:45:16.049Z,8.77
2023-02-15T17:47:43.947Z,6.45
2023-02-15T17:50:38.053Z,10.27
2023-02-15T17:53:09.005Z,10.48
2023-02-15T17:55:39.215Z,6.80
2023-02-15T17:58:19.552Z,31.90
2023-02-15T18:01:11.871Z,15.52
2023-02-15T18:04:08.611Z,7.22
2023-02-15T18:06:56.764Z,5.38
2023-02-15T18:09:43.625Z,9.00
2023-02-15T18:12:31.358Z,14.77
2023-02-15T18:14:59.427Z,9.15
2023-02-15T18:17:34.902Z,12.52
2023-02-15T18:20:05.655Z,7.60
2023-02-15T18:22:33.422Z,7.63
2023-02-15T18:25:01.155Z,13.40
2023-02-15T18:27:29.002Z,10.73
2023-02-15T18:29:56.899Z,16.67
2023-02-15T18:32:34.300Z,44.78
2023-02-15T18:35:02.257Z,17.75
2023-02-15T18:37:58.909Z,19.08
2023-02-15T18:40:27.728Z,15.88
2023-02-15T18:42:57.249Z,20.38
2023-02-15T18:45:33.414Z,11.18
2023-02-15T18:48:01.204Z,16.70
2023-02-15T18:50:31.816Z,18.25
2023-02-15T18:52:59.928Z,34.80
2023-02-15T18:55:28.235Z,40.38
2023-02-15T18:57:57.001Z,23.35
2023-02-15T19:00:32.552Z,30.70
2023-02-15T19:03:02.117Z,26.52
2023-02-15T19:05:30.927Z,20.35
2023-02-15T19:07:59.795Z,22.23
2023-02-15T19:10:28.837Z,20.23
2023-02-15T19:12:56.506Z,28.73
2023-02-15T19:15:26.674Z,38.42
2023-02-15T19:17:54.636Z,27.30
2023-02-15T19:20:32.654Z,21.17
2023-02-15T19:23:01.603Z,45.97
2023-02-15T19:25:30.751Z,38.10
2023-02-15T19:27:58.973Z,64.90
2023-02-15T19:30:30.863Z,59.60
2023-02-15T19:32:58.960Z,62.42
2023-02-15T19:35:27.850Z,28.65
2023-02-15T19:38:00.434Z,33.97
2023-02-15T19:40:32.817Z,27.63
2023-02-15T19:43:00.482Z,24.10
2023-02-15T19:45:29.802Z,12.38
2023-02-15T19:47:57.493Z,35.33
2023-02-15T19:50:30.725Z,25.48
2023-02-15T19:52:58.548Z,21.98
2023-02-15T19:55:28.170Z,32.88
2023-02-15T19:57:56.872Z,26.88
2023-02-15T20:00:29.359Z,33.42
2023-02-15T20:02:59.400Z,32.55
2023-02-15T20:05:31.064Z,24.67
2023-02-15T20:07:58.661Z,17.75
2023-02-15T20:10:30.736Z,22.70
2023-02-15T20:12:58.989Z,28.02
2023-02-15T20:15:34.604Z,26.33
2023-02-15T20:18:04.315Z,30.73
2023-02-15T20:20:39.258Z,24.67
2023-02-15T20:23:07.309Z,17.92
2023-02-15T20:25:34.949Z,23.70
2023-02-15T20:28:02.711Z,21.00
2023-02-15T20:30:31.391Z,29.75
2023-02-15T20:32:59.273Z,22.33
2023-02-15T20:35:28.746Z,31.88
2023-02-15T20:37:57.326Z,24.40
2023-02-15T20:40:26.673Z,29.52
2023-02-15T20:42:54.574Z,19.65
2023-02-15T20:45:26.002Z,12.13
2023-02-15T20:47:58.493Z,23.52
2023-02-15T20:50:28.252Z,16.15
2023-02-15T20:52:57.820Z,28.30
2023-02-15T20:55:30.482Z,21.95
2023-02-15T20:57:59.734Z,20.58
2023-02-15T21:00:28.807Z,20.33
2023-02-15T21:03:01.176Z,21.77
2023-02-15T21:05:30.950Z,21.63
2023-02-15T21:08:12.167Z,19.60
2023-02-15T21:10:45.378Z,47.83
2023-02-15T21:13:39.808Z,91.25
2023-02-15T21:16:09.124Z,62.42
2023-02-15T21:18:39.020Z,73.13
2023-02-15T21:21:06.785Z,44.70
2023-02-15T21:23:42.017Z,64.70
2023-02-15T21:26:20.171Z,51.33
2023-02-15T21:28:49.194Z,28.95
2023-02-15T21:31:18.760Z,45.45
2023-02-15T21:33:46.738Z,74.95
2023-02-15T21:36:19.944Z,90.20
2023-02-15T21:38:47.645Z,76.03
2023-02-15T21:41:39.038Z,88.90
2023-02-15T21:44:42.086Z,27.35
2023-02-15T21:47:42.482Z,20.58
2023-02-15T21:50:33.873Z,13.23
2023-02-15T21:53:01.585Z,12.05
2023-02-15T21:55:29.354Z,10.55
2023-02-15T21:57:57.156Z,14.48
2023-02-15T22:00:25.681Z,12.35
2023-02-15T22:02:54.984Z,16.48
2023-02-15T22:05:33.491Z,11.65
2023-02-15T22:08:01.300Z,13.45
2023-02-15T22:10:32.980Z,13.05
2023-02-15T22:13:01.686Z,13.05
2023-02-15T22:15:36.632Z,7.40
2023-02-15T22:18:04.722Z,7.57
2023-02-15T22:20:32.693Z,9.40
2023-02-15T22:23:00.496Z,12.60
2023-02-15T22:25:28.443Z,9.68
2023-02-15T22:27:59.074Z,16.48
2023-02-15T22:30:29.265Z,15.82
2023-02-15T22:32:57.460Z,10.23
2023-02-15T22:35:34.432Z,11.95
2023-02-15T22:38:02.197Z,13.52
2023-02-15T22:40:32.039Z,13.68
2023-02-15T22:43:01.017Z,9.90
2023-02-15T22:45:29.132Z,9.60
2023-02-15T22:47:57.796Z,9.05
2023-02-15T22:50:27.547Z,11.75
2023-02-15T22:52:55.221Z,9.88
2023-02-15T22:55:27.983Z,10.95
2023-02-15T22:57:55.803Z,12.43
2023-02-15T23:00:25.869Z,14.38
2023-02-15T23:02:56.634Z,10.70
2023-02-15T23:05:33.728Z,9.95
2023-02-15T23:08:11.705Z,13.88
2023-02-15T23:10:39.752Z,14.68
2023-02-15T23:13:25.987Z,10.73
2023-02-15T23:15:58.858Z,10.32
2023-02-15T23:18:38.286Z,9.10
2023-02-15T23:21:31.303Z,11.77
2023-02-15T23:24:19.083Z,8.18
2023-02-15T23:26:47.634Z,11.48
2023-02-15T23:29:17.747Z,11.35
2023-02-15T23:31:47.202Z,10.57
2023-02-15T23:34:29.476Z,12.80
2023-02-15T23:36:57.365Z,10.57
2023-02-15T23:39:46.273Z,10.57
2023-02-15T23:42:21.796Z,7.40
2023-02-15T23:44:51.075Z,10.48
2023-02-15T23:47:19.853Z,24.17
2023-02-15T23:49:47.532Z,12.77
2023-02-15T23:52:15.211Z,11.18
2023-02-15T23:54:43.487Z,22.85
2023-02-15T23:57:11.331Z,36.28
2023-02-15T23:59:39.912Z,24.42
